Time;durP1;ratioP1;P1;durP2;ratioP2;P2;SDS_P1;SDS_P2;PMS_P1;PMS_P2;Temp;Humidity;BMP_temperature;BMP_pressure;BME280_temperature;BME280_humidity;BME280_pressure;Samples;Min_cycle;Max_cycle;Signal;HPM_P1;HPM_P2
2024/03/03 00:01:43;;;;;;;3.17;2.15;;;15.20;54.80;16.70;99669.00;;;;5015444;28;20252;-74
2024/03/03 00:04:11;;;;;;;4.05;2.10;;;15.20;54.80;16.70;99675.00;;;;5011925;28;20571;-74
2024/03/03 00:06:39;;;;;;;2.42;1.88;;;15.20;54.90;16.70;99663.00;;;;5012087;28;20296;-74
2024/03/03 00:09:06;;;;;;;2.40;1.98;;;15.20;54.90;16.70;99667.00;;;;5014352;28;20280;-74
2024/03/03 00:11:34;;;;;;;4.28;2.20;;;15.20;54.90;16.80;99670.00;;;;5010185;28;20404;-74
2024/03/03 00:14:02;;;;;;;2.25;1.65;;;15.20;55.00;16.80;99676.00;;;;5015681;28;20204;-74
2024/03/03 00:16:31;;;;;;;3.33;2.10;;;15.20;55.00;16.80;99666.00;;;;5013288;28;20284;-74
2024/03/03 00:18:58;;;;;;;3.22;2.08;;;15.20;55.00;16.80;99676.00;;;;5008868;28;20271;-75
2024/03/03 00:21:26;;;;;;;3.55;2.10;;;15.20;54.90;16.80;99671.00;;;;5012395;28;20684;-74
2024/03/03 00:23:54;;;;;;;2.35;2.15;;;15.20;54.90;16.80;99673.00;;;;5013702;28;20279;-75
2024/03/03 00:26:21;;;;;;;3.28;2.20;;;15.20;54.90;16.80;99670.00;;;;5013153;28;20292;-75
2024/03/03 00:28:48;;;;;;;3.10;2.30;;;15.30;55.00;16.80;99675.00;;;;5014393;28;20334;-74
2024/03/03 00:31:18;;;;;;;3.17;2.05;;;15.30;55.00;16.80;99671.00;;;;5012597;28;20710;-74
2024/03/03 00:33:46;;;;;;;2.90;2.20;;;15.30;55.00;16.80;99668.00;;;;5012718;28;20189;-74
2024/03/03 00:36:13;;;;;;;2.75;2.05;;;15.30;55.00;16.80;99672.00;;;;5013499;28;20197;-73
2024/03/03 00:38:40;;;;;;;4.38;2.33;;;15.30;55.00;16.80;99673.00;;;;5013776;28;20320;-75
2024/03/03 00:41:08;;;;;;;3.38;2.40;;;15.30;54.90;16.80;99672.00;;;;5014066;28;20207;-74
2024/03/03 00:43:36;;;;;;;2.35;2.10;;;15.30;54.90;16.80;99671.00;;;;5007448;28;20674;-74
2024/03/03 00:46:04;;;;;;;2.90;2.60;;;15.30;54.90;16.80;99671.00;;;;5014397;28;20681;-74
2024/03/03 00:48:31;;;;;;;3.33;2.20;;;15.30;54.90;16.90;99665.00;;;;5014898;28;20267;-74
2024/03/03 00:50:58;;;;;;;2.67;1.92;;;15.30;54.90;16.90;99673.00;;;;5013837;28;20283;-74
2024/03/03 00:53:25;;;;;;;2.63;2.25;;;15.40;55.00;16.90;99676.00;;;;5011920;28;20276;-73
2024/03/03 00:55:52;;;;;;;3.25;2.35;;;15.30;54.90;16.90;99672.00;;;;5014166;28;20213;-74
2024/03/03 00:58:21;;;;;;;3.60;2.13;;;15.40;55.00;16.90;99669.00;;;;5013596;28;20312;-74
2024/03/03 01:00:48;;;;;;;3.38;2.47;;;15.30;54.90;16.90;99678.00;;;;5013776;28;20201;-72
2024/03/03 01:03:15;;;;;;;3.05;2.25;;;15.40;55.00;16.90;99667.00;;;;5010130;28;20201;-74
2024/03/03 01:05:42;;;;;;;3.38;2.33;;;15.40;55.00;16.90;99674.00;;;;5013177;28;20757;-74
2024/03/03 01:08:10;;;;;;;2.65;2.03;;;15.40;55.00;17.00;99676.00;;;;5013372;28;20300;-73
2024/03/03 01:10:37;;;;;;;2.90;2.10;;;15.40;55.00;17.00;99682.00;;;;5013558;28;20208;-74
2024/03/03 01:13:05;;;;;;;2.70;2.08;;;15.40;55.00;17.00;99685.00;;;;5011140;28;20285;-74
2024/03/03 01:15:33;;;;;;;3.28;2.58;;;15.40;55.10;17.00;99683.00;;;;4994156;28;20252;-74
2024/03/03 01:18:00;;;;;;;3.05;2.28;;;15.40;55.00;17.00;99677.00;;;;4993905;28;20312;-73
2024/03/03 01:20:28;;;;;;;3.97;2.45;;;15.50;55.10;17.00;99683.00;;;;5011347;28;20270;-74
2024/03/03 01:22:55;;;;;;;3.67;2.47;;;15.40;55.00;17.00;99678.00;;;;5008627;28;20289;-73
2024/03/03 01:25:22;;;;;;;2.75;2.15;;;15.50;55.00;17.00;99671.00;;;;5012770;28;20295;-73
2024/03/03 01:27:49;;;;;;;2.85;2.20;;;15.50;55.00;17.10;99672.00;;;;5013566;28;20655;-74
2024/03/03 01:30:16;;;;;;;2.78;2.10;;;15.50;55.00;17.10;99684.00;;;;5012881;28;20666;-74
2024/03/03 01:32:45;;;;;;;2.70;2.33;;;15.50;55.00;17.10;99682.00;;;;5012833;28;20300;-73
2024/03/03 01:35:12;;;;;;;2.97;2.58;;;15.50;55.00;17.10;99685.00;;;;5003362;28;20202;-74
2024/03/03 01:37:39;;;;;;;2.75;2.33;;;15.50;55.00;17.10;99680.00;;;;5013477;28;20272;-74
2024/03/03 01:40:08;;;;;;;2.33;1.92;;;15.50;55.00;17.10;99672.00;;;;5015651;28;20279;-74
2024/03/03 01:42:35;;;;;;;2.90;2.08;;;15.50;55.00;17.10;99671.00;;;;5013074;28;20686;-74
2024/03/03 01:45:03;;;;;;;3.53;2.10;;;15.50;55.00;17.10;99681.00;;;;5008758;28;20735;-74
2024/03/03 01:47:31;;;;;;;2.78;2.38;;;15.50;55.00;17.10;99679.00;;;;5011986;28;20261;-75
2024/03/03 01:50:01;;;;;;;3.55;2.75;;;15.50;55.00;17.10;99679.00;;;;5012878;28;20276;-73
2024/03/03 01:52:29;;;;;;;2.75;2.22;;;15.50;55.00;17.10;99674.00;;;;5012605;28;20197;-74
2024/03/03 01:54:57;;;;;;;3.95;2.20;;;15.50;55.00;17.10;99681.00;;;;5015252;28;20283;-73
2024/03/03 01:57:24;;;;;;;2.80;2.38;;;15.50;55.00;17.10;99677.00;;;;5032725;28;20299;-75
2024/03/03 01:59:54;;;;;;;2.20;1.98;;;15.50;55.00;17.10;99672.00;;;;5018030;28;20324;-74
2024/03/03 02:02:21;;;;;;;4.07;2.33;;;15.50;55.10;17.10;99677.00;;;;5012839;28;20197;-74
2024/03/03 02:04:49;;;;;;;3.55;2.25;;;15.50;55.10;17.10;99679.00;;;;5009914;28;20304;-74
2024/03/03 02:07:20;;;;;;;3.70;2.22;;;15.50;55.10;17.00;99680.00;;;;5011996;28;20292;-75
2024/03/03 02:09:48;;;;;;;2.72;2.20;;;15.50;55.10;17.10;99684.00;;;;5011190;28;20284;-74
2024/03/03 02:12:17;;;;;;;3.70;2.30;;;15.50;55.10;17.10;99678.00;;;;5018159;28;20287;-73
2024/03/03 02:14:44;;;;;;;2.80;2.33;;;15.50;55.10;17.10;99683.00;;;;5003301;28;20641;-73
2024/03/03 02:17:11;;;;;;;3.50;2.90;;;15.50;55.10;17.00;99687.00;;;;5012412;28;20193;-74
2024/03/03 02:19:38;;;;;;;3.40;2.45;;;15.50;55.10;17.00;99680.00;;;;5002492;28;20260;-74
2024/03/03 02:22:07;;;;;;;3.55;2.40;;;15.50;55.10;17.00;99665.00;;;;4993630;28;20370;-74
2024/03/03 02:24:34;;;;;;;2.38;2.17;;;15.40;55.00;17.00;99666.00;;;;5009442;28;20211;-74
2024/03/03 02:27:02;;;;;;;3.15;2.67;;;15.40;55.10;16.90;99667.00;;;;5011964;28;20275;-73
2024/03/03 02:29:30;;;;;;;3.00;2.35;;;15.40;55.00;16.90;99664.00;;;;5002392;28;20196;-74
2024/03/03 02:31:57;;;;;;;2.92;2.45;;;15.40;55.10;16.90;99669.00;;;;5011855;28;20197;-73
2024/03/03 02:34:26;;;;;;;3.30;2.70;;;15.30;55.10;16.90;99665.00;;;;5010319;28;20197;-74
2024/03/03 02:36:53;;;;;;;3.75;2.90;;;15.30;55.10;16.90;99677.00;;;;5011635;28;20647;-73
2024/03/03 02:39:21;;;;;;;2.97;2.60;;;15.30;55.10;16.80;99679.00;;;;5010859;28;20324;-74
2024/03/03 02:41:48;;;;;;;3.85;2.42;;;15.30;55.20;16.80;99673.00;;;;5010854;28;20643;-74
2024/03/03 02:44:15;;;;;;;4.22;2.15;;;15.20;55.20;16.80;99677.00;;;;5009783;28;20225;-74
2024/03/03 02:46:43;;;;;;;3.67;2.78;;;15.20;55.20;16.80;99678.00;;;;5012596;28;20291;-74
2024/03/03 02:49:10;;;;;;;3.28;2.47;;;15.20;55.30;16.80;99681.00;;;;5003177;28;20293;-74
2024/03/03 02:51:37;;;;;;;3.55;2.78;;;15.20;55.30;16.80;99684.00;;;;5005849;28;20279;-75
2024/03/03 02:54:04;;;;;;;3.33;2.67;;;15.10;55.30;16.70;99682.00;;;;5010801;28;20204;-72
2024/03/03 02:56:33;;;;;;;3.47;2.70;;;15.10;55.30;16.70;99677.00;;;;5012105;28;20738;-72
2024/03/03 02:59:00;;;;;;;3.92;2.70;;;15.10;55.40;16.70;99680.00;;;;5010116;28;20294;-72
2024/03/03 03:01:27;;;;;;;3.55;2.45;;;15.10;55.40;16.70;99679.00;;;;5012369;28;20236;-72
2024/03/03 03:03:54;;;;;;;3.13;2.70;;;15.10;55.40;16.60;99682.00;;;;5012753;28;20639;-73
2024/03/03 03:06:21;;;;;;;2.78;2.47;;;15.00;55.40;16.60;99675.00;;;;5011763;28;20653;-73
2024/03/03 03:08:48;;;;;;;3.53;2.67;;;15.00;55.50;16.60;99676.00;;;;5008772;28;20280;-72
2024/03/03 03:11:15;;;;;;;2.88;2.47;;;15.00;55.60;16.60;99670.00;;;;5011936;28;20220;-73
2024/03/03 03:13:44;;;;;;;2.92;2.45;;;15.00;55.60;16.60;99664.00;;;;5012008;28;20721;-72
2024/03/03 03:16:11;;;;;;;3.53;2.63;;;14.90;55.60;16.60;99667.00;;;;5011790;28;20673;-73
2024/03/03 03:18:38;;;;;;;3.67;2.65;;;14.90;55.60;16.50;99677.00;;;;5009930;28;20698;-73
2024/03/03 03:21:07;;;;;;;4.28;3.10;;;14.90;55.70;16.50;99677.00;;;;5012496;28;20746;-72
2024/03/03 03:23:34;;;;;;;4.78;2.83;;;14.90;55.70;16.50;99675.00;;;;5010453;28;20201;-72
2024/03/03 03:26:01;;;;;;;3.85;2.65;;;14.90;55.80;16.50;99672.00;;;;5007844;28;20292;-71
2024/03/03 03:28:29;;;;;;;4.75;3.33;;;14.80;55.80;16.50;99681.00;;;;4999934;28;20197;-72
2024/03/03 03:30:57;;;;;;;4.38;3.38;;;14.80;55.80;16.40;99684.00;;;;4992389;28;20280;-72
2024/03/03 03:33:24;;;;;;;4.72;3.22;;;14.80;55.80;16.40;99683.00;;;;4994758;28;20288;-72
2024/03/03 03:35:51;;;;;;;3.65;3.00;;;14.80;55.80;16.40;99683.00;;;;5011166;28;20690;-71
2024/03/03 03:38:18;;;;;;;4.38;3.03;;;14.80;55.90;16.40;99680.00;;;;5018672;28;20665;-71
2024/03/03 03:40:45;;;;;;;8.02;3.15;;;14.70;55.80;16.30;99686.00;;;;5010668;28;20284;-72
2024/03/03 03:43:12;;;;;;;3.53;2.50;;;14.70;55.80;16.30;99683.00;;;;4996606;28;20276;-72
2024/03/03 03:45:40;;;;;;;4.53;3.50;;;14.70;55.90;16.30;99686.00;;;;5011780;28;20641;-72
2024/03/03 03:48:08;;;;;;;4.22;3.38;;;14.60;55.90;16.20;99692.00;;;;5007882;28;20725;-72
2024/03/03 03:50:36;;;;;;;3.83;2.67;;;14.60;56.00;16.20;99688.00;;;;5009049;28;20665;-72
2024/03/03 03:53:03;;;;;;;4.00;3.15;;;14.60;56.00;16.20;99692.00;;;;5011531;28;20666;-72
2024/03/03 03:55:30;;;;;;;4.10;2.90;;;14.60;56.10;16.20;99694.00;;;;5013753;28;20205;-72
2024/03/03 03:57:57;;;;;;;4.05;3.17;;;14.50;56.10;16.10;99695.00;;;;5013194;28;20674;-72
2024/03/03 04:00:24;;;;;;;6.68;3.88;;;14.50;56.20;16.10;99691.00;;;;5013788;28;21013;-72
2024/03/03 04:02:52;;;;;;;4.97;3.85;;;14.50;56.30;16.10;99681.00;;;;5014668;28;20347;-72
2024/03/03 04:05:21;;;;;;;4.72;3.53;;;14.40;56.30;16.10;99691.00;;;;5014914;28;20323;-72
2024/03/03 04:07:48;;;;;;;6.13;3.55;;;14.40;56.40;16.00;99681.00;;;;5014367;28;20283;-73
2024/03/03 04:10:17;;;;;;;5.80;3.38;;;14.40;56.40;16.00;99679.00;;;;5010326;28;20251;-72
2024/03/03 04:12:45;;;;;;;5.47;3.55;;;14.40;56.50;16.00;99683.00;;;;5004445;28;20205;-73
2024/03/03 04:15:14;;;;;;;3.95;3.08;;;14.40;56.50;16.00;99675.00;;;;5014511;28;20197;-73
2024/03/03 04:17:42;;;;;;;4.15;3.28;;;14.40;56.50;16.00;99677.00;;;;5014767;28;20251;-73
2024/03/03 04:20:11;;;;;;;4.03;3.47;;;14.30;56.50;16.00;99684.00;;;;5010135;28;20256;-73
2024/03/03 04:22:39;;;;;;;4.35;3.22;;;14.40;56.50;15.90;99681.00;;;;5015067;28;20285;-73
2024/03/03 04:25:08;;;;;;;5.47;3.38;;;14.30;56.50;15.90;99682.00;;;;5014586;28;20283;-73
2024/03/03 04:27:36;;;;;;;4.18;3.53;;;14.30;56.60;15.90;99681.00;;;;5015695;28;20288;-73
2024/03/03 04:30:05;;;;;;;5.22;3.40;;;14.30;56.60;15.90;99683.00;;;;5011557;28;20288;-73
2024/03/03 04:32:32;;;;;;;4.43;3.13;;;14.20;56.60;15.80;99692.00;;;;5013337;28;20203;-73
2024/03/03 04:35:02;;;;;;;5.05;3.75;;;14.20;57.20;15.80;99689.00;;;;5014270;28;20193;-73
2024/03/03 04:37:30;;;;;;;6.80;3.58;;;14.20;56.70;15.80;99690.00;;;;5014591;28;20242;-73
2024/03/03 04:39:58;;;;;;;6.10;3.92;;;14.20;56.80;15.70;99703.00;;;;5008414;28;20229;-72
2024/03/03 04:42:26;;;;;;;5.05;3.90;;;14.20;56.80;15.70;99704.00;;;;5013941;28;20284;-73
2024/03/03 04:44:53;;;;;;;16.23;4.10;;;14.20;56.80;15.70;99702.00;;;;5015059;28;20308;-73
2024/03/03 04:47:20;;;;;;;5.65;3.83;;;14.20;56.90;15.70;99705.00;;;;5014182;28;20276;-73
2024/03/03 04:49:47;;;;;;;4.55;3.72;;;14.10;56.80;15.70;99702.00;;;;5002410;28;20321;-73
2024/03/03 04:52:14;;;;;;;5.28;3.90;;;14.10;56.90;15.70;99703.00;;;;4995906;28;20292;-73
2024/03/03 04:54:41;;;;;;;5.82;4.30;;;14.10;57.00;15.70;99719.00;;;;4995513;28;20281;-73
2024/03/03 04:57:09;;;;;;;5.20;3.83;;;14.10;57.10;15.70;99712.00;;;;5007466;28;20204;-72
2024/03/03 04:59:36;;;;;;;6.80;4.32;;;14.10;57.10;15.70;99720.00;;;;5006298;28;20229;-72
2024/03/03 05:02:04;;;;;;;5.00;4.07;;;14.10;57.20;15.80;99717.00;;;;5005637;28;20201;-73
2024/03/03 05:04:31;;;;;;;6.38;4.15;;;14.10;57.20;15.70;99720.00;;;;5005950;28;20259;-72
2024/03/03 05:07:00;;;;;;;6.28;4.53;;;14.10;57.30;15.70;99720.00;;;;5005015;28;20647;-72
2024/03/03 05:09:27;;;;;;;5.15;4.03;;;14.10;57.30;15.80;99716.00;;;;5003032;28;20777;-72
2024/03/03 05:11:54;;;;;;;5.53;4.43;;;14.10;57.30;15.80;99726.00;;;;5000130;28;20678;-72
2024/03/03 05:14:22;;;;;;;6.75;4.57;;;14.10;57.30;15.80;99719.00;;;;5004451;28;20201;-73
2024/03/03 05:16:49;;;;;;;6.38;4.63;;;14.10;57.30;15.80;99723.00;;;;5001638;28;20296;-73
2024/03/03 05:19:16;;;;;;;5.72;4.25;;;14.20;57.40;15.80;99725.00;;;;5001967;28;20316;-72
2024/03/03 05:21:44;;;;;;;7.80;5.38;;;14.10;57.30;15.80;99725.00;;;;5003476;28;20554;-73
2024/03/03 05:24:11;;;;;;;5.75;4.10;;;14.10;57.30;15.80;99727.00;;;;5001576;28;20280;-73
2024/03/03 05:26:38;;;;;;;5.35;4.05;;;14.20;57.30;15.80;99725.00;;;;5000189;28;20189;-72
2024/03/03 05:29:06;;;;;;;6.78;4.28;;;14.20;57.90;15.80;99737.00;;;;5004591;28;20328;-72
2024/03/03 05:31:42;;;;;;;5.78;4.32;;;14.10;57.20;15.70;99738.00;;;;5009537;28;20594;-73
2024/03/03 05:34:12;;;;;;;6.47;5.10;;;14.10;57.20;15.70;99740.00;;;;5012769;28;20658;-72
2024/03/03 05:36:41;;;;;;;5.40;4.32;;;14.10;57.20;15.70;99739.00;;;;5013001;28;20545;-73
2024/03/03 05:39:08;;;;;;;5.22;4.68;;;14.10;57.20;15.70;99749.00;;;;5009980;28;20233;-72
2024/03/03 05:41:35;;;;;;;4.85;3.75;;;14.10;57.10;15.70;99746.00;;;;5008849;28;20291;-73
2024/03/03 05:44:04;;;;;;;9.05;4.80;;;14.10;57.20;15.70;99755.00;;;;5006844;28;20296;-73
2024/03/03 05:46:31;;;;;;;5.32;4.07;;;14.10;57.20;15.60;99748.00;;;;5004285;28;20255;-73
2024/03/03 05:48:59;;;;;;;5.82;5.13;;;14.10;57.20;15.60;99764.00;;;;5002926;28;20284;-73
2024/03/03 05:51:27;;;;;;;8.00;4.88;;;14.00;57.20;15.60;99768.00;;;;5000963;28;20285;-73
2024/03/03 05:53:54;;;;;;;5.78;4.68;;;14.00;57.30;15.60;99774.00;;;;5004566;28;20638;-73
2024/03/03 05:56:21;;;;;;;7.88;5.03;;;14.00;57.30;15.60;99776.00;;;;5007410;28;20284;-73
2024/03/03 05:58:48;;;;;;;6.13;4.10;;;14.00;57.30;15.50;99782.00;;;;5012772;28;20193;-72
2024/03/03 06:01:15;;;;;;;7.03;4.80;;;14.00;57.30;15.50;99786.00;;;;5001006;28;20236;-72
2024/03/03 06:03:43;;;;;;;6.82;4.15;;;13.90;57.30;15.50;99788.00;;;;5012575;28;20768;-73
2024/03/03 06:06:11;;;;;;;7.57;4.60;;;13.90;57.30;15.50;99787.00;;;;5011120;28;20307;-73
2024/03/03 06:08:42;;;;;;;5.57;4.50;;;13.90;57.30;15.40;99783.00;;;;5008582;28;21184;-73
2024/03/03 06:11:10;;;;;;;5.50;4.20;;;13.90;57.40;15.40;99791.00;;;;5008377;28;20216;-73
2024/03/03 06:13:37;;;;;;;6.10;4.30;;;13.90;57.40;15.40;99786.00;;;;5022920;28;20287;-72
2024/03/03 06:16:05;;;;;;;5.70;4.25;;;13.90;57.30;15.40;99793.00;;;;5032213;28;20275;-73
2024/03/03 06:18:32;;;;;;;5.22;4.07;;;13.80;57.30;15.30;99783.00;;;;5017353;28;20205;-72
2024/03/03 06:20:59;;;;;;;6.50;4.82;;;13.80;57.40;15.40;99795.00;;;;5004990;28;20332;-72
2024/03/03 06:23:29;;;;;;;6.60;4.68;;;13.70;57.40;15.30;99799.00;;;;5005944;28;20220;-73
2024/03/03 06:25:56;;;;;;;5.53;4.45;;;13.70;57.40;15.30;99801.00;;;;5002091;28;20260;-73
2024/03/03 06:28:23;;;;;;;5.63;4.68;;;13.70;57.50;15.30;99803.00;;;;5000113;28;20231;-73
2024/03/03 06:30:50;;;;;;;5.78;4.85;;;13.70;57.60;15.30;99806.00;;;;5005847;28;20248;-73
2024/03/03 06:33:18;;;;;;;5.80;4.50;;;13.70;57.70;15.30;99804.00;;;;5011015;28;20288;-72
2024/03/03 06:35:46;;;;;;;5.80;4.40;;;13.70;57.70;15.30;99804.00;;;;5004997;28;20197;-72
2024/03/03 06:38:13;;;;;;;5.88;4.60;;;13.70;57.80;15.30;99809.00;;;;5004653;28;20681;-72
2024/03/03 06:40:44;;;;;;;7.75;4.90;;;13.70;57.80;15.30;99805.00;;;;5005717;28;20223;-72
2024/03/03 06:43:11;;;;;;;6.30;4.60;;;13.70;58.00;15.40;99822.00;;;;5008577;28;20259;-73
2024/03/03 06:45:38;;;;;;;6.28;4.97;;;13.80;58.00;15.40;99819.00;;;;5011742;28;20212;-72
2024/03/03 06:48:06;;;;;;;9.93;4.78;;;13.70;58.00;15.40;99819.00;;;;4996750;28;20284;-72
2024/03/03 06:50:33;;;;;;;6.35;4.50;;;13.80;58.00;15.40;99813.00;;;;4992679;28;20205;-73
2024/03/03 06:53:00;;;;;;;7.03;4.82;;;13.80;58.10;15.40;99806.00;;;;4999901;28;20295;-73
2024/03/03 06:55:28;;;;;;;4.88;4.00;;;13.80;58.00;15.40;99812.00;;;;5020170;28;20270;-72
2024/03/03 06:57:57;;;;;;;6.35;4.78;;;13.80;58.00;15.40;99811.00;;;;5022260;28;20688;-73
2024/03/03 07:00:24;;;;;;;7.35;4.45;;;13.80;58.00;15.40;99824.00;;;;5011941;28;20307;-73
2024/03/03 07:03:29;;;;;;;5.53;4.15;;;13.90;58.00;15.40;99825.00;;;;5010098;28;20283;-73
2024/03/03 07:05:56;;;;;;;6.05;4.55;;;13.80;57.90;15.40;99824.00;;;;5025217;28;20220;-73
2024/03/03 07:08:23;;;;;;;6.15;4.75;;;13.80;57.90;15.40;99827.00;;;;5008689;28;20193;-72
2024/03/03 07:10:50;;;;;;;5.40;4.35;;;13.80;57.90;15.50;99835.00;;;;4997451;28;20194;-73
2024/03/03 07:13:21;;;;;;;5.68;4.82;;;13.80;58.00;15.40;99838.00;;;;5003120;28;20284;-73
2024/03/03 07:15:48;;;;;;;6.57;4.88;;;13.80;58.00;15.50;99856.00;;;;5012233;28;20288;-73
2024/03/03 07:18:15;;;;;;;6.38;4.35;;;13.80;58.10;15.50;99860.00;;;;5015809;28;20287;-72
2024/03/03 07:20:43;;;;;;;4.72;4.05;;;13.80;58.10;15.50;99856.00;;;;5025973;28;20777;-73
2024/03/03 07:23:10;;;;;;;6.07;4.28;;;13.90;58.20;15.60;99869.00;;;;5011917;28;20197;-72
2024/03/03 07:25:37;;;;;;;5.70;4.18;;;13.90;58.20;15.60;99863.00;;;;5011546;28;20192;-72
2024/03/03 07:28:05;;;;;;;6.43;4.38;;;13.90;58.20;15.60;99861.00;;;;5007246;28;20288;-73
2024/03/03 07:30:33;;;;;;;6.43;4.38;;;13.90;58.20;15.70;99869.00;;;;5004986;28;20275;-72
2024/03/03 07:33:00;;;;;;;8.27;4.40;;;14.00;58.30;15.70;99866.00;;;;5013588;28;20750;-74
2024/03/03 07:35:27;;;;;;;4.40;3.95;;;14.00;58.30;15.70;99865.00;;;;5016171;28;20618;-75
2024/03/03 07:37:54;;;;;;;6.55;5.03;;;14.00;58.30;15.80;99875.00;;;;5020663;28;20308;-73
2024/03/03 07:40:21;;;;;;;5.95;4.53;;;14.00;58.30;15.80;99871.00;;;;5007273;28;20331;-73
2024/03/03 07:42:49;;;;;;;6.70;4.63;;;14.10;58.40;15.90;99883.00;;;;5011557;28;20216;-74
2024/03/03 07:45:16;;;;;;;6.82;4.53;;;14.10;58.40;15.90;99880.00;;;;5015466;28;20197;-73
2024/03/03 07:47:45;;;;;;;6.38;4.32;;;14.20;58.40;16.00;99887.00;;;;5023586;28;20240;-73
2024/03/03 07:50:12;;;;;;;6.22;4.50;;;14.20;58.40;16.00;99887.00;;;;5029381;28;20208;-74
2024/03/03 07:52:39;;;;;;;6.25;4.40;;;14.20;58.40;16.00;99901.00;;;;5018769;28;20275;-73
2024/03/03 07:55:07;;;;;;;6.40;4.93;;;14.30;59.00;16.10;99904.00;;;;5020578;28;20569;-73
2024/03/03 07:57:35;;;;;;;5.32;4.30;;;14.30;58.40;16.10;99902.00;;;;5015562;28;20197;-74
2024/03/03 08:00:06;;;;;;;6.90;4.15;;;14.30;58.30;16.10;99912.00;;;;5015350;28;20224;-74
2024/03/03 08:02:33;;;;;;;6.65;4.60;;;14.40;58.30;16.10;99909.00;;;;4995576;28;20267;-73
2024/03/03 08:05:04;;;;;;;6.45;4.60;;;14.40;58.30;16.20;99908.00;;;;4995875;28;20309;-73
2024/03/03 08:07:31;;;;;;;6.82;5.10;;;14.40;58.30;16.20;99908.00;;;;5007730;28;20207;-84
2024/03/03 08:09:58;;;;;;;6.18;5.00;;;14.50;58.40;16.30;99907.00;;;;5011281;28;20288;-83
2024/03/03 08:12:26;;;;;;;7.10;4.85;;;14.50;58.40;16.40;99906.00;;;;5009594;28;20611;-83
2024/03/03 08:14:53;;;;;;;5.43;4.00;;;14.50;58.40;16.40;99903.00;;;;5015187;28;20197;-81
2024/03/03 08:17:20;;;;;;;5.38;4.25;;;14.60;58.40;16.50;99896.00;;;;5012285;28;20203;-82
2024/03/03 08:19:48;;;;;;;5.28;3.70;;;14.70;58.50;16.50;99902.00;;;;5011946;28;20202;-83
2024/03/03 08:22:17;;;;;;;5.80;4.50;;;14.70;59.00;16.60;99907.00;;;;5014015;28;20292;-82
2024/03/03 08:24:44;;;;;;;6.25;4.55;;;14.80;58.40;16.60;99903.00;;;;5003509;28;20295;-80
2024/03/03 08:27:11;;;;;;;5.80;4.55;;;14.80;58.40;16.70;99904.00;;;;5016901;28;20288;-82
2024/03/03 08:29:38;;;;;;;5.57;4.53;;;14.90;58.40;16.70;99897.00;;;;5012961;28;20192;-81
2024/03/03 08:32:07;;;;;;;6.93;4.43;;;14.90;58.30;16.80;99892.00;;;;5005550;28;20280;-81
2024/03/03 08:34:34;;;;;;;5.05;4.07;;;14.90;58.30;16.80;99890.00;;;;5003553;28;20205;-82
2024/03/03 08:37:01;;;;;;;5.43;4.05;;;15.00;58.30;16.90;99873.00;;;;5011990;28;20589;-81
2024/03/03 08:39:30;;;;;;;5.53;4.20;;;15.00;58.30;17.00;99866.00;;;;5012815;28;20812;-81
2024/03/03 08:41:57;;;;;;;5.78;4.38;;;15.10;58.30;17.00;99859.00;;;;5013201;28;20316;-81
2024/03/03 08:44:24;;;;;;;6.43;4.32;;;15.20;58.40;17.10;99859.00;;;;5014916;28;20288;-81
2024/03/03 08:46:51;;;;;;;7.00;4.45;;;15.20;58.40;17.20;99865.00;;;;5014385;28;20201;-81
2024/03/03 08:49:19;;;;;;;5.97;4.53;;;15.30;58.40;17.30;99861.00;;;;5012734;28;20262;-81
2024/03/03 08:51:46;;;;;;;4.20;3.40;;;15.40;58.40;17.40;99861.00;;;;5013499;28;20203;-81
2024/03/03 08:54:13;;;;;;;6.40;4.40;;;15.50;58.40;17.50;99854.00;;;;5012706;28;20220;-80
2024/03/03 08:56:43;;;;;;;6.68;3.92;;;15.60;58.30;17.60;99853.00;;;;5013656;28;20285;-80
2024/03/03 08:59:10;;;;;;;4.50;4.05;;;15.60;58.30;17.70;99850.00;;;;5014100;28;20219;-80
2024/03/03 09:01:38;;;;;;;5.80;4.07;;;15.70;58.20;17.70;99863.00;;;;5003513;28;20313;-81
2024/03/03 09:04:05;;;;;;;5.65;3.90;;;15.80;58.10;17.80;99856.00;;;;5005963;28;20201;-80
2024/03/03 09:06:32;;;;;;;5.05;4.00;;;15.90;58.10;17.90;99857.00;;;;5012360;28;20251;-80
2024/03/03 09:08:59;;;;;;;6.20;4.07;;;16.00;58.00;17.90;99854.00;;;;5012770;28;20288;-80
2024/03/03 09:11:28;;;;;;;4.85;3.80;;;16.00;57.90;18.00;99857.00;;;;5010210;28;20275;-79
2024/03/03 09:13:56;;;;;;;6.10;3.63;;;16.10;57.80;18.10;99869.00;;;;5007563;28;20197;-80
2024/03/03 09:16:23;;;;;;;5.00;3.58;;;16.20;57.80;18.20;99877.00;;;;5008289;28;20934;-80
2024/03/03 09:18:49;;;;;;;4.43;3.55;;;16.30;57.80;18.30;99873.00;;;;5015392;28;20205;-81
2024/03/03 09:21:16;;;;;;;4.10;3.33;;;16.40;57.80;18.40;99886.00;;;;5012513;28;20275;-81
2024/03/03 09:23:44;;;;;;;4.65;3.47;;;16.40;57.70;18.50;99891.00;;;;5009490;28;20197;-80
2024/03/03 09:26:11;;;;;;;4.35;3.13;;;16.50;57.60;18.50;99900.00;;;;5010565;28;20209;-79
2024/03/03 09:28:39;;;;;;;3.90;3.00;;;16.60;57.60;18.60;99907.00;;;;5008134;28;20197;-81
2024/03/03 09:31:08;;;;;;;4.72;3.00;;;16.70;57.70;18.70;99911.00;;;;5013824;28;20596;-82
2024/03/03 09:33:35;;;;;;;2.97;2.30;;;16.80;57.60;18.80;99918.00;;;;5011351;28;20252;-79
2024/03/03 09:36:03;;;;;;;5.75;3.65;;;16.90;57.50;18.90;99914.00;;;;5013960;28;20711;-83
2024/03/03 09:38:30;;;;;;;4.25;3.13;;;17.00;57.40;19.00;99921.00;;;;5012816;28;20233;-75
2024/03/03 09:40:57;;;;;;;4.28;3.05;;;17.10;57.30;19.00;99929.00;;;;5013313;28;20227;-76
2024/03/03 09:43:29;;;;;;;5.47;3.65;;;17.20;57.20;19.00;99936.00;;;;5007738;28;20296;-76
2024/03/03 09:45:56;;;;;;;5.32;4.32;;;17.20;56.90;19.20;99943.00;;;;5012870;28;20205;-75
2024/03/03 09:48:25;;;;;;;6.05;4.22;;;17.30;56.80;19.20;99948.00;;;;5012844;28;20358;-74
2024/03/03 09:50:57;;;;;;;5.22;3.92;;;17.40;56.70;19.20;99946.00;;;;5011598;28;20655;-73
2024/03/03 09:53:24;;;;;;;7.13;4.97;;;17.40;56.70;19.30;99950.00;;;;5008016;28;20689;-76
2024/03/03 09:55:55;;;;;;;5.88;4.13;;;17.50;56.60;19.20;99955.00;;;;5006463;28;20296;-75
2024/03/03 09:58:22;;;;;;;6.15;4.20;;;17.50;56.50;19.30;99958.00;;;;5008039;28;20695;-75
2024/03/03 10:00:53;;;;;;;6.20;4.93;;;17.50;56.10;19.30;99956.00;;;;5010562;28;20319;-81
2024/03/03 10:03:23;;;;;;;6.28;4.82;;;17.60;56.10;19.30;99955.00;;;;5009412;28;20646;-80
2024/03/03 10:05:54;;;;;;;6.82;4.93;;;17.60;56.10;19.30;99959.00;;;;5012578;28;20299;-80
2024/03/03 10:08:25;;;;;;;6.57;4.90;;;17.60;56.00;19.30;99956.00;;;;5007570;28;20197;-85
2024/03/03 10:10:59;;;;;;;5.80;4.50;;;17.70;55.90;19.40;99959.00;;;;5008432;28;20300;-84
2024/03/03 10:13:26;;;;;;;10.15;4.75;;;17.70;55.90;19.40;99954.00;;;;5011951;28;20193;-81
2024/03/03 10:15:55;;;;;;;7.53;4.85;;;17.70;55.90;19.40;99962.00;;;;5012739;28;20205;-83
2024/03/03 10:18:22;;;;;;;6.43;4.72;;;17.70;55.90;19.50;99964.00;;;;5003031;28;20474;-82
2024/03/03 10:20:52;;;;;;;7.10;5.10;;;17.80;55.90;19.50;99964.00;;;;5005377;28;20217;-80
2024/03/03 10:23:24;;;;;;;7.20;4.75;;;17.80;55.90;19.50;99953.00;;;;5012234;28;20279;-81
2024/03/03 10:25:55;;;;;;;4.97;4.28;;;17.80;55.60;19.60;99955.00;;;;5012683;28;20232;-81
2024/03/03 10:28:22;;;;;;;4.72;4.20;;;17.90;55.70;19.70;99950.00;;;;5012497;28;20255;-81
2024/03/03 10:30:50;;;;;;;5.90;4.40;;;17.90;55.70;19.70;99947.00;;;;5010911;28;20232;-81
2024/03/03 10:33:18;;;;;;;6.45;4.75;;;18.00;55.60;19.80;99947.00;;;;5010915;28;20193;-82
2024/03/03 10:35:45;;;;;;;6.57;4.53;;;18.00;55.60;19.80;99942.00;;;;5012534;28;20201;-81
2024/03/03 10:38:15;;;;;;;5.72;4.28;;;18.00;55.30;19.80;99951.00;;;;5011462;28;20757;-83
2024/03/03 10:40:44;;;;;;;6.00;4.63;;;18.10;55.40;19.80;99954.00;;;;5010877;28;20213;-82
2024/03/03 10:43:11;;;;;;;8.95;5.00;;;18.10;55.20;19.90;99948.00;;;;5011945;28;20200;-80
2024/03/03 10:45:39;;;;;;;7.25;4.72;;;18.10;55.20;19.90;99947.00;;;;5012369;28;20309;-81
2024/03/03 10:48:07;;;;;;;6.50;4.22;;;18.10;55.70;20.00;99953.00;;;;5012309;28;20205;-82
2024/03/03 10:50:34;;;;;;;5.88;4.45;;;18.20;55.30;20.00;99953.00;;;;5009647;28;20192;-81
2024/03/03 10:53:03;;;;;;;6.53;4.28;;;18.20;55.20;20.00;99965.00;;;;5009925;28;20295;-82
2024/03/03 10:55:33;;;;;;;7.30;5.00;;;18.20;55.20;20.00;99959.00;;;;5011896;28;20224;-80
2024/03/03 10:58:04;;;;;;;7.03;4.78;;;18.30;55.20;20.00;99960.00;;;;5011644;28;20292;-79